Time;durP1;ratioP1;P1;durP2;ratioP2;P2;SDS_P1;SDS_P2;PMS_P1;PMS_P2;Temp;Humidity;BMP_temperature;BMP_pressure;BME280_temperature;BME280_humidity;BME280_pressure;Samples;Min_cycle;Max_cycle;Signal;HPM_P1;HPM_P2
2021/12/19 00:04:35;;;;;;;102.70;53.30;;;19.40;77.70;;;;;;4950642;28;95010;-44
2021/12/19 00:10:01;;;;;;;107.07;54.45;;;19.40;77.90;;;;;;4957364;28;95275;-42
2021/12/19 00:12:34;;;;;;;96.45;49.40;;;19.40;77.70;;;;;;4958437;28;95841;-47
2021/12/19 00:15:07;;;;;;;104.53;54.42;;;19.40;77.80;;;;;;4958339;28;95785;-46
2021/12/19 00:17:39;;;;;;;100.65;52.00;;;19.40;77.70;;;;;;4958792;28;94921;-47
2021/12/19 00:20:12;;;;;;;94.97;48.90;;;19.40;77.90;;;;;;4958576;28;95309;-42
2021/12/19 00:23:06;;;;;;;83.18;41.42;;;19.50;78.40;;;;;;4958069;28;95113;-40
2021/12/19 00:25:39;;;;;;;90.13;45.55;;;19.50;78.30;;;;;;4958167;28;95882;-40
2021/12/19 00:28:12;;;;;;;68.20;37.97;;;19.60;78.40;;;;;;4958360;28;95062;-40
2021/12/19 00:30:45;;;;;;;56.97;30.67;;;19.60;78.60;;;;;;4958557;28;95200;-40
2021/12/19 00:33:16;;;;;;;76.20;38.65;;;19.70;79.40;;;;;;4958186;28;96426;-41
2021/12/19 00:35:48;;;;;;;43.97;21.83;;;19.70;79.00;;;;;;4956547;28;95731;-40
2021/12/19 00:38:22;;;;;;;38.20;18.67;;;19.70;79.80;;;;;;4958299;28;94969;-41
2021/12/19 00:40:53;;;;;;;29.50;15.38;;;19.70;79.50;;;;;;4957472;28;95144;-40
2021/12/19 00:44:07;;;;;;;39.58;18.52;;;19.70;79.60;;;;;;4957997;28;95872;-40
2021/12/19 00:46:26;;;;;;;28.13;14.45;;;19.70;79.40;;;;;;4956388;28;95477;-40
2021/12/19 00:48:58;;;;;;;31.00;16.25;;;19.70;79.80;;;;;;4959408;28;94947;-39
2021/12/19 00:51:32;;;;;;;30.70;13.18;;;19.70;79.80;;;;;;4958337;28;95090;-40
2021/12/19 00:54:09;;;;;;;13.52;7.85;;;19.70;79.90;;;;;;4958967;28;96437;-40
2021/12/19 00:56:45;;;;;;;15.18;7.60;;;19.80;80.30;;;;;;4959700;28;95093;-40
2021/12/19 00:59:18;;;;;;;22.67;9.95;;;19.80;80.50;;;;;;4958418;28;95018;-40
2021/12/19 01:01:51;;;;;;;24.90;11.02;;;19.80;80.20;;;;;;4956412;28;95096;-40
2021/12/19 01:04:25;;;;;;;32.88;14.73;;;19.80;80.20;;;;;;4958511;28;95807;-41
2021/12/19 01:07:00;;;;;;;17.33;8.63;;;19.80;79.80;;;;;;4956521;28;95007;-41
2021/12/19 01:09:34;;;;;;;14.15;7.55;;;19.80;79.70;;;;;;4958358;28;94945;-40
2021/12/19 01:12:10;;;;;;;15.93;6.70;;;19.70;79.10;;;;;;4957372;28;95391;-40
2021/12/19 01:14:43;;;;;;;13.98;5.53;;;19.70;78.50;;;;;;4958061;28;96440;-40
2021/12/19 01:17:16;;;;;;;11.38;5.40;;;19.60;77.70;;;;;;4957361;28;95798;-40
2021/12/19 01:19:48;;;;;;;14.38;5.35;;;19.60;77.90;;;;;;4958609;28;94989;-40
2021/12/19 01:22:21;;;;;;;14.98;4.47;;;19.60;77.80;;;;;;4958636;28;95196;-40
2021/12/19 01:24:53;;;;;;;10.90;3.75;;;19.60;77.50;;;;;;4958256;28;95841;-41
2021/12/19 01:27:26;;;;;;;12.50;4.03;;;19.50;76.20;;;;;;4957932;28;95233;-41
2021/12/19 01:29:58;;;;;;;12.10;4.15;;;19.50;76.20;;;;;;4958233;28;94946;-40
2021/12/19 01:32:30;;;;;;;9.02;3.58;;;19.50;76.30;;;;;;4957426;28;95085;-41
2021/12/19 01:35:03;;;;;;;9.05;4.03;;;19.40;76.00;;;;;;4957490;28;96440;-39
2021/12/19 01:37:37;;;;;;;8.68;3.10;;;19.40;76.30;;;;;;4957567;28;95889;-40
2021/12/19 01:40:13;;;;;;;10.45;3.72;;;19.40;76.10;;;;;;4958096;28;94915;-40
2021/12/19 01:42:46;;;;;;;8.70;4.65;;;19.40;75.90;;;;;;4958553;28;95165;-40
2021/12/19 01:45:32;;;;;;;9.82;4.03;;;19.40;75.90;;;;;;4958365;28;95904;-40
2021/12/19 01:48:15;;;;;;;11.07;4.53;;;19.40;76.00;;;;;;4958184;28;101895;-43
2021/12/19 01:50:51;;;;;;;9.88;3.97;;;19.40;76.00;;;;;;4959078;28;94973;-40
2021/12/19 01:53:28;;;;;;;7.38;2.83;;;19.30;75.50;;;;;;4959146;28;95192;-40
2021/12/19 01:56:03;;;;;;;9.43;2.67;;;19.30;75.10;;;;;;4957340;28;95923;-40
2021/12/19 01:58:38;;;;;;;7.43;3.22;;;19.30;75.00;;;;;;4958366;28;95519;-41
2021/12/19 02:01:12;;;;;;;10.60;2.90;;;19.30;75.20;;;;;;4958266;28;94946;-41
2021/12/19 02:03:45;;;;;;;6.10;2.70;;;19.20;75.30;;;;;;4958731;28;95192;-41
2021/12/19 02:06:18;;;;;;;6.95;1.88;;;19.30;75.40;;;;;;4957623;28;96061;-40
2021/12/19 02:08:53;;;;;;;6.18;2.35;;;19.20;75.60;;;;;;4956878;28;95879;-41
2021/12/19 02:11:26;;;;;;;4.95;1.67;;;19.20;76.00;;;;;;4957971;28;94944;-41
2021/12/19 02:13:57;;;;;;;4.95;1.80;;;19.10;75.90;;;;;;4957768;28;95297;-41
2021/12/19 02:16:32;;;;;;;5.75;2.05;;;19.10;76.30;;;;;;4956488;28;96481;-42
2021/12/19 02:19:05;;;;;;;3.97;1.80;;;19.10;76.50;;;;;;4955981;28;94933;-40
2021/12/19 02:21:40;;;;;;;4.13;1.45;;;19.10;76.10;;;;;;4957620;28;94934;-41
2021/12/19 02:24:12;;;;;;;3.88;1.63;;;19.10;76.30;;;;;;4956855;28;95287;-41
2021/12/19 02:26:47;;;;;;;4.35;1.40;;;19.00;76.00;;;;;;4957550;28;94977;-41
2021/12/19 02:29:19;;;;;;;4.13;1.30;;;18.90;75.80;;;;;;4957199;28;95301;-41
2021/12/19 02:31:51;;;;;;;4.70;1.42;;;18.90;75.80;;;;;;4955930;28;94915;-41
2021/12/19 02:34:27;;;;;;;3.22;1.30;;;18.80;75.70;;;;;;4960090;28;95272;-40
2021/12/19 02:37:12;;;;;;;1.73;0.90;;;18.80;75.70;;;;;;4960911;28;96053;-41
2021/12/19 02:48:13;;;;;;;2.45;1.63;;;18.60;76.50;;;;;;4961417;28;96483;-40
2021/12/19 02:50:52;;;;;;;6.13;2.70;;;18.60;76.70;;;;;;4961174;28;95328;-41
2021/12/19 02:53:38;;;;;;;7.00;3.65;;;18.60;76.80;;;;;;4961807;28;94947;-40
2021/12/19 02:56:11;;;;;;;10.13;5.22;;;18.60;77.00;;;;;;4962029;28;95223;-40
2021/12/19 02:58:46;;;;;;;11.50;6.35;;;18.70;77.80;;;;;;4960657;28;95846;-40
2021/12/19 03:01:21;;;;;;;13.00;5.13;;;18.70;78.20;;;;;;4960741;28;95638;-41
2021/12/19 03:03:57;;;;;;;7.03;3.80;;;18.70;78.10;;;;;;4961358;28;94978;-41
2021/12/19 03:06:29;;;;;;;9.30;4.35;;;18.80;77.80;;;;;;4961768;28;95219;-40
2021/12/19 03:09:07;;;;;;;7.82;4.30;;;18.70;77.70;;;;;;4959779;28;95968;-41
2021/12/19 03:12:03;;;;;;;8.52;4.18;;;18.70;78.20;;;;;;4959882;28;95826;-39
2021/12/19 03:20:12;;;;;;;12.73;6.85;;;18.80;78.70;;;;;;4960095;28;94930;-40
2021/12/19 03:22:47;;;;;;;17.50;7.57;;;18.80;78.70;;;;;;4959997;28;95449;-39
2021/12/19 03:25:20;;;;;;;17.83;7.90;;;18.80;78.60;;;;;;4960119;28;94927;-40
2021/12/19 03:27:53;;;;;;;20.42;8.93;;;18.90;78.70;;;;;;4960589;28;95124;-39
2021/12/19 03:30:26;;;;;;;15.57;7.97;;;19.00;78.70;;;;;;4960099;28;96007;-39
2021/12/19 03:32:58;;;;;;;16.55;8.43;;;19.00;78.50;;;;;;4959981;28;95813;-39
2021/12/19 03:35:32;;;;;;;14.85;6.63;;;19.00;78.40;;;;;;4959921;28;95035;-39
2021/12/19 03:38:07;;;;;;;19.67;8.63;;;19.00;78.40;;;;;;4959945;28;95204;-39
2021/12/19 03:40:45;;;;;;;13.75;7.68;;;19.00;78.40;;;;;;4959668;28;95839;-40
2021/12/19 03:43:19;;;;;;;13.05;6.88;;;19.00;78.40;;;;;;4958179;28;94971;-40
2021/12/19 03:45:51;;;;;;;12.02;6.35;;;19.00;78.40;;;;;;4959279;28;94960;-40
2021/12/19 03:48:25;;;;;;;11.45;6.93;;;19.10;78.40;;;;;;4960946;28;95319;-39
2021/12/19 03:50:59;;;;;;;11.43;6.65;;;19.10;78.40;;;;;;4960638;28;97258;-39
2021/12/19 03:53:31;;;;;;;12.23;7.25;;;19.10;78.40;;;;;;4960672;28;95262;-39
2021/12/19 03:56:04;;;;;;;14.40;6.68;;;19.20;78.50;;;;;;4961059;28;95004;-39
2021/12/19 03:58:37;;;;;;;9.65;6.00;;;19.20;78.40;;;;;;4960178;28;95145;-39
2021/12/19 04:01:11;;;;;;;11.95;5.65;;;19.20;78.20;;;;;;4959633;28;96055;-39
2021/12/19 04:03:45;;;;;;;9.95;5.82;;;19.20;78.10;;;;;;4959534;28;95860;-39
2021/12/19 04:06:17;;;;;;;10.88;5.47;;;19.20;78.00;;;;;;4959615;28;94922;-39
2021/12/19 04:08:50;;;;;;;7.57;5.05;;;19.30;77.90;;;;;;4959525;28;95113;-40
2021/12/19 04:11:24;;;;;;;9.23;5.05;;;19.20;77.90;;;;;;4959199;28;95912;-39
2021/12/19 04:13:56;;;;;;;9.05;4.10;;;19.30;78.00;;;;;;4958775;28;95828;-38
2021/12/19 04:16:29;;;;;;;11.70;4.88;;;19.30;78.40;;;;;;4959476;28;94954;-39
2021/12/19 04:19:03;;;;;;;8.18;3.95;;;19.30;78.10;;;;;;4990970;28;95369;-39
2021/12/19 04:21:35;;;;;;;8.02;3.60;;;19.30;77.90;;;;;;4959199;28;95886;-39
2021/12/19 04:24:07;;;;;;;;;;;19.20;77.80;;;;;;4959608;28;95379;-39
2021/12/19 04:26:40;;;;;;;10.55;4.93;;;19.20;77.70;;;;;;4960716;28;94955;-39
2021/12/19 04:29:13;;;;;;;8.82;4.18;;;19.20;77.70;;;;;;4959322;28;95282;-39
2021/12/19 04:31:44;;;;;;;12.02;4.05;;;19.20;77.60;;;;;;4957849;28;95857;-39
2021/12/19 04:34:17;;;;;;;7.70;3.22;;;19.20;77.60;;;;;;4957581;28;95505;-40
2021/12/19 04:36:57;;;;;;;11.65;4.05;;;19.20;77.40;;;;;;4959090;28;94954;-39
2021/12/19 04:53:23;;;;;;;10.63;3.58;;;19.10;77.10;;;;;;4959353;28;95907;-39
2021/12/19 05:01:30;;;;;;;4.68;2.65;;;19.10;77.50;;;;;;4959303;28;95354;-40
2021/12/19 05:04:25;;;;;;;5.80;2.53;;;19.10;77.50;;;;;;4959133;28;95813;-39
2021/12/19 05:15:33;;;;;;;6.78;2.35;;;19.20;77.40;;;;;;4958061;28;95777;-39
2021/12/19 05:18:09;;;;;;;10.30;3.20;;;19.20;77.20;;;;;;4958286;28;95426;-39
2021/12/19 05:20:52;;;;;;;5.63;2.78;;;19.20;77.10;;;;;;4958387;28;94929;-39
2021/12/19 05:26:06;;;;;;;7.47;2.40;;;19.20;77.00;;;;;;4958002;28;95850;-39
2021/12/19 05:28:39;;;;;;;9.00;3.00;;;19.20;77.00;;;;;;4958373;28;95828;-39
2021/12/19 05:31:12;;;;;;;7.30;2.38;;;19.20;76.80;;;;;;4958346;28;95012;-39
2021/12/19 05:33:45;;;;;;;5.45;2.00;;;19.20;76.80;;;;;;4958741;28;95184;-39
2021/12/19 05:47:23;;;;;;;3.33;1.75;;;19.10;76.10;;;;;;4958132;28;95853;-39
2021/12/19 05:49:56;;;;;;;2.83;1.70;;;19.20;76.10;;;;;;4958644;28;95940;-39
2021/12/19 05:52:30;;;;;;;4.90;2.28;;;19.20;76.10;;;;;;4958785;28;94974;-38
2021/12/19 05:55:01;;;;;;;6.05;2.13;;;19.20;75.90;;;;;;4959222;28;95332;-39
2021/12/19 05:57:32;;;;;;;6.32;2.20;;;19.10;75.90;;;;;;4958669;28;96449;-39
2021/12/19 06:00:09;;;;;;;6.07;1.75;;;19.10;75.90;;;;;;4957949;28;95196;-39
2021/12/19 06:02:45;;;;;;;3.92;1.95;;;19.20;75.80;;;;;;4957934;28;94987;-39
2021/12/19 06:05:17;;;;;;;4.78;1.92;;;19.20;75.80;;;;;;4958625;28;95092;-39
2021/12/19 06:07:49;;;;;;;5.53;2.22;;;19.20;75.80;;;;;;4958279;28;96427;-39
2021/12/19 06:10:22;;;;;;;4.68;1.90;;;19.20;75.60;;;;;;4960908;28;95472;-39
2021/12/19 06:12:57;;;;;;;6.25;1.77;;;19.20;75.60;;;;;;4961663;28;94958;-39
2021/12/19 06:15:28;;;;;;;4.85;2.05;;;19.30;75.50;;;;;;4960973;28;95153;-39
2021/12/19 06:18:00;;;;;;;5.97;2.10;;;19.20;75.30;;;;;;4961097;28;95859;-40
2021/12/19 06:20:34;;;;;;;3.60;1.95;;;19.30;75.30;;;;;;4960568;28;95586;-39
2021/12/19 06:23:09;;;;;;;3.90;1.83;;;19.30;75.30;;;;;;4960817;28;94972;-40
2021/12/19 06:25:45;;;;;;;8.70;2.67;;;19.30;75.10;;;;;;4961452;28;95212;-39
2021/12/19 06:28:18;;;;;;;5.68;2.00;;;19.30;75.00;;;;;;4960839;28;96415;-46
2021/12/19 06:30:51;;;;;;;4.97;2.17;;;19.30;74.70;;;;;;4960381;28;95277;-45
2021/12/19 06:33:24;;;;;;;5.45;2.17;;;19.30;74.60;;;;;;4961094;28;94934;-46
2021/12/19 06:36:00;;;;;;;8.32;2.15;;;19.20;74.50;;;;;;4961084;28;95241;-48
2021/12/19 06:38:32;;;;;;;5.55;2.20;;;19.30;74.40;;;;;;4960172;28;95369;-47
2021/12/19 06:41:03;;;;;;;4.93;1.80;;;19.20;74.30;;;;;;4960592;28;95299;-44
2021/12/19 06:43:34;;;;;;;;;;;19.30;74.00;;;;;;4961370;28;94946;-46
2021/12/19 06:46:08;;;;;;;7.32;3.00;;;19.30;73.90;;;;;;4961796;28;95228;-44
2021/12/19 06:48:40;;;;;;;5.97;2.08;;;19.20;73.70;;;;;;4960334;28;95965;-42
2021/12/19 06:51:14;;;;;;;4.78;1.63;;;19.30;73.40;;;;;;4961588;28;95045;-43
2021/12/19 06:53:46;;;;;;;4.03;1.92;;;19.30;72.80;;;;;;4961610;28;95043;-46
2021/12/19 06:56:18;;;;;;;8.63;2.70;;;19.20;72.60;;;;;;4961821;28;95352;-44
2021/12/19 06:58:51;;;;;;;10.55;2.42;;;19.20;72.30;;;;;;4960516;28;96548;-47
2021/12/19 07:01:24;;;;;;;9.18;2.55;;;19.20;72.00;;;;;;4960607;28;95798;-46
2021/12/19 07:03:57;;;;;;;5.90;1.83;;;19.20;71.90;;;;;;4961178;28;95014;-45
2021/12/19 07:06:31;;;;;;;5.88;2.25;;;19.20;71.90;;;;;;4959084;28;95268;-45
2021/12/19 07:09:03;;;;;;;13.23;2.35;;;19.20;71.90;;;;;;4959954;28;96045;-46
2021/12/19 07:11:36;;;;;;;9.45;2.67;;;19.20;72.00;;;;;;4960345;28;95279;-43
2021/12/19 07:14:07;;;;;;;9.65;3.00;;;19.20;72.00;;;;;;4960212;28;94958;-43
2021/12/19 07:16:40;;;;;;;8.60;2.38;;;19.20;72.00;;;;;;4960812;28;95164;-46
2021/12/19 07:19:13;;;;;;;6.00;2.13;;;19.30;72.00;;;;;;4959566;28;95912;-46
2021/12/19 07:21:45;;;;;;;7.55;2.38;;;19.30;71.90;;;;;;4959939;28;95100;-44
2021/12/19 07:24:18;;;;;;;5.80;2.17;;;19.30;71.80;;;;;;4960412;28;95013;-45
2021/12/19 07:26:51;;;;;;;6.32;2.33;;;19.20;71.50;;;;;;4960001;28;95379;-46
2021/12/19 07:29:23;;;;;;;7.50;2.90;;;19.20;71.30;;;;;;4958181;28;96471;-44
2021/12/19 07:31:56;;;;;;;5.38;1.60;;;19.30;71.40;;;;;;4958366;28;95982;-43
2021/12/19 07:34:34;;;;;;;7.47;1.80;;;19.30;71.00;;;;;;4960006;28;95049;-47
2021/12/19 07:37:08;;;;;;;7.85;1.90;;;19.30;70.90;;;;;;4959139;28;95281;-47
2021/12/19 07:39:53;;;;;;;5.80;2.35;;;19.30;70.90;;;;;;4958298;28;96204;-46
2021/12/19 07:42:24;;;;;;;7.60;2.15;;;19.20;70.60;;;;;;4959480;28;95710;-43
2021/12/19 07:44:55;;;;;;;7.28;1.83;;;19.30;70.40;;;;;;4960187;28;94977;-40
2021/12/19 07:47:27;;;;;;;5.30;1.92;;;19.20;70.30;;;;;;4960455;28;95155;-47
2021/12/19 07:50:03;;;;;;;8.30;2.05;;;19.20;70.00;;;;;;4960709;28;95830;-44
2021/12/19 07:52:37;;;;;;;10.35;2.22;;;19.20;69.90;;;;;;4960603;28;95776;-45
2021/12/19 07:55:09;;;;;;;5.70;1.75;;;19.20;69.50;;;;;;4960608;28;94892;-47
2021/12/19 07:57:41;;;;;;;;;;;19.20;69.60;;;;;;4961056;28;95185;-45
2021/12/19 08:00:16;;;;;;;7.35;1.67;;;19.20;69.50;;;;;;4960735;28;95802;-46
2021/12/19 08:02:50;;;;;;;6.72;1.73;;;19.20;69.30;;;;;;4959828;28;95538;-45
2021/12/19 08:05:22;;;;;;;4.95;1.67;;;19.20;69.00;;;;;;4959686;28;95081;-46
2021/12/19 08:08:00;;;;;;;5.22;1.80;;;19.20;69.00;;;;;;4960368;28;95312;-46
2021/12/19 08:13:08;;;;;;;6.15;2.13;;;19.20;68.90;;;;;;4959300;28;95882;-48
2021/12/19 08:15:41;;;;;;;3.75;1.42;;;19.20;69.00;;;;;;4959612;28;94958;-47
2021/12/19 08:18:15;;;;;;;5.35;1.38;;;19.30;69.10;;;;;;4958168;28;95365;-46
2021/12/19 08:20:47;;;;;;;2.28;1.10;;;19.30;69.10;;;;;;4958977;28;95870;-46
2021/12/19 08:23:19;;;;;;;5.95;1.73;;;19.30;69.10;;;;;;4958979;28;95232;-42
2021/12/19 08:25:51;;;;;;;5.45;1.75;;;19.30;69.00;;;;;;4959168;28;94950;-44
2021/12/19 08:28:24;;;;;;;2.72;1.40;;;19.30;69.10;;;;;;4959447;28;95136;-46
2021/12/19 08:30:57;;;;;;;5.63;1.60;;;19.30;69.00;;;;;;4958184;28;96497;-44
2021/12/19 08:33:29;;;;;;;8.40;1.58;;;19.30;69.00;;;;;;4958969;28;95843;-44
2021/12/19 08:36:02;;;;;;;4.60;1.70;;;19.30;69.10;;;;;;4959431;28;95015;-46
2021/12/19 08:38:35;;;;;;;3.63;1.63;;;19.30;69.00;;;;;;4959247;28;95204;-43
2021/12/19 08:41:07;;;;;;;5.65;1.75;;;19.30;69.10;;;;;;4958076;28;95718;-42
2021/12/19 08:43:39;;;;;;;5.18;1.52;;;19.30;69.00;;;;;;4958749;28;95219;-47
2021/12/19 08:46:14;;;;;;;2.63;1.20;;;19.30;69.10;;;;;;4959746;28;94938;-45
2021/12/19 08:48:45;;;;;;;5.25;1.67;;;19.30;69.10;;;;;;4960051;28;95166;-46
2021/12/19 08:51:19;;;;;;;5.63;1.67;;;19.20;69.00;;;;;;4960020;28;96188;-42
2021/12/19 08:53:54;;;;;;;5.10;1.10;;;19.20;68.90;;;;;;4959682;28;95322;-44
2021/12/19 08:56:31;;;;;;;3.83;1.63;;;19.20;68.80;;;;;;4959793;28;94970;-46
2021/12/19 08:59:04;;;;;;;4.13;1.67;;;19.20;69.40;;;;;;4959046;28;95254;-45
2021/12/19 09:01:38;;;;;;;5.25;1.50;;;19.20;68.90;;;;;;4957700;28;96134;-47
2021/12/19 09:04:11;;;;;;;3.55;1.20;;;19.20;68.80;;;;;;4959013;28;95814;-45
2021/12/19 09:06:46;;;;;;;6.47;1.58;;;19.20;68.80;;;;;;4959390;28;95009;-44
2021/12/19 09:09:17;;;;;;;6.10;2.13;;;19.20;68.80;;;;;;4958973;28;95192;-45
2021/12/19 09:11:52;;;;;;;2.22;1.10;;;19.20;68.70;;;;;;4958528;28;95872;-42
2021/12/19 09:14:23;;;;;;;4.72;1.40;;;19.20;68.80;;;;;;4957794;28;95267;-47
2021/12/19 09:17:01;;;;;;;4.35;1.77;;;19.20;68.90;;;;;;4956131;28;95112;-45
2021/12/19 09:19:34;;;;;;;5.57;1.70;;;19.20;68.80;;;;;;4957591;28;95136;-47
2021/12/19 09:22:06;;;;;;;4.05;1.33;;;19.10;68.90;;;;;;4958190;28;96108;-43
2021/12/19 09:24:38;;;;;;;5.90;2.00;;;19.10;69.00;;;;;;4958348;28;95274;-45
2021/12/19 09:27:11;;;;;;;2.58;1.15;;;19.20;69.10;;;;;;4958459;28;94939;-47
2021/12/19 09:29:44;;;;;;;4.35;1.40;;;19.20;69.20;;;;;;4957671;28;95096;-47
2021/12/19 09:32:17;;;;;;;3.30;1.15;;;19.10;69.20;;;;;;4956715;28;96469;-44
2021/12/19 09:34:50;;;;;;;5.50;1.65;;;19.10;69.20;;;;;;4957666;28;95721;-45
2021/12/19 09:37:24;;;;;;;5.82;1.98;;;19.10;69.10;;;;;;4958212;28;94949;-45
2021/12/19 09:39:55;;;;;;;7.72;1.67;;;19.10;69.20;;;;;;4958220;28;95018;-45
2021/12/19 09:42:33;;;;;;;5.43;1.55;;;19.10;69.20;;;;;;4957885;28;95899;-45
2021/12/19 09:45:06;;;;;;;4.78;1.35;;;19.10;69.30;;;;;;4956989;28;95777;-46
2021/12/19 09:47:38;;;;;;;4.88;1.77;;;19.00;69.30;;;;;;4957910;28;95002;-47
2021/12/19 09:50:14;;;;;;;5.50;1.30;;;19.00;69.40;;;;;;4959381;28;95214;-42
2021/12/19 09:52:52;;;;;;;4.03;1.38;;;19.00;69.40;;;;;;4958531;28;96426;-45
2021/12/19 09:55:25;;;;;;;5.18;2.45;;;19.00;69.40;;;;;;4958841;28;95420;-42
2021/12/19 09:58:01;;;;;;;6.50;2.10;;;19.00;69.40;;;;;;4958883;28;94970;-45
2021/12/19 10:00:35;;;;;;;4.25;1.60;;;19.00;69.40;;;;;;4958546;28;95188;-44
2021/12/19 10:03:14;;;;;;;4.30;1.40;;;19.00;69.50;;;;;;4957789;28;95878;-41
2021/12/19 10:05:46;;;;;;;4.00;1.70;;;19.00;69.40;;;;;;4957979;28;95273;-43
2021/12/19 10:08:25;;;;;;;2.50;1.52;;;19.00;69.30;;;;;;4957281;28;95055;-46
2021/12/19 10:11:01;;;;;;;4.47;1.63;;;19.10;69.30;;;;;;4957800;28;95107;-45
2021/12/19 10:13:39;;;;;;;2.55;1.10;;;19.20;69.10;;;;;;4957262;28;95030;-47
2021/12/19 10:16:31;;;;;;;3.03;1.50;;;19.20;68.90;;;;;;4957150;28;95454;-45
2021/12/19 10:19:08;;;;;;;4.90;2.05;;;19.30;68.70;;;;;;4957845;28;94931;-44
2021/12/19 10:21:41;;;;;;;3.35;1.00;;;19.20;68.40;;;;;;4957860;28;95330;-45
2021/12/19 10:24:35;;;;;;;4.68;1.75;;;19.20;68.40;;;;;;4956296;28;95096;-47
2021/12/19 10:27:11;;;;;;;2.58;1.52;;;19.30;68.20;;;;;;4957232;28;95886;-47
2021/12/19 10:29:47;;;;;;;2.03;1.10;;;19.30;68.20;;;;;;4957592;28;94994;-44
2021/12/19 10:32:22;;;;;;;5.38;1.20;;;19.30;68.10;;;;;;4956248;28;95502;-44
2021/12/19 10:35:22;;;;;;;4.97;1.40;;;19.30;68.10;;;;;;4957172;28;96138;-43
2021/12/19 10:37:56;;;;;;;4.90;1.30;;;19.30;68.00;;;;;;4957373;28;95774;-47
2021/12/19 10:40:30;;;;;;;7.78;1.90;;;19.30;68.60;;;;;;4956095;28;95019;-46
2021/12/19 10:43:04;;;;;;;4.32;1.45;;;19.20;67.80;;;;;;4957683;28;95329;-45
2021/12/19 10:45:49;;;;;;;5.38;1.27;;;19.20;67.70;;;;;;4957512;28;96073;-40
2021/12/19 10:48:30;;;;;;;4.03;1.27;;;19.20;67.70;;;;;;4958292;28;95152;-45
2021/12/19 10:51:20;;;;;;;3.92;1.42;;;19.20;67.60;;;;;;4958240;28;95052;-43
2021/12/19 10:53:56;;;;;;;4.57;1.13;;;19.30;67.50;;;;;;4958774;28;95137;-47
2021/12/19 10:56:36;;;;;;;5.63;1.55;;;19.20;67.50;;;;;;4961196;28;95928;-47
2021/12/19 10:59:17;;;;;;;5.85;1.40;;;19.20;67.40;;;;;;4943238;28;95584;-46
2021/12/19 11:01:56;;;;;;;6.13;1.38;;;19.20;67.20;;;;;;4959173;28;94946;-46
2021/12/19 11:04:35;;;;;;;2.88;1.33;;;19.30;67.20;;;;;;4961386;28;95200;-41
2021/12/19 11:07:07;;;;;;;2.72;1.20;;;19.30;66.80;;;;;;4960684;28;95864;-46
2021/12/19 11:09:41;;;;;;;3.72;1.30;;;19.30;66.70;;;;;;4960942;28;95326;-42
2021/12/19 11:12:13;;;;;;;6.35;1.45;;;19.30;66.60;;;;;;4959139;28;94961;-45
2021/12/19 11:14:49;;;;;;;3.33;1.67;;;19.20;66.60;;;;;;4960389;28;95220;-47
2021/12/19 11:17:26;;;;;;;6.45;1.80;;;19.20;66.60;;;;;;4959174;28;96060;-46
2021/12/19 11:20:00;;;;;;;7.90;1.65;;;19.20;66.50;;;;;;4990891;28;96046;-47
2021/12/19 11:22:33;;;;;;;3.15;1.30;;;19.20;66.40;;;;;;4958638;28;94978;-47
2021/12/19 11:25:05;;;;;;;3.55;1.52;;;19.20;66.30;;;;;;4960451;28;95159;-42
2021/12/19 11:27:38;;;;;;;4.25;1.15;;;19.20;66.20;;;;;;4959774;28;95858;-45
2021/12/19 11:30:14;;;;;;;5.15;1.35;;;19.20;66.20;;;;;;4959823;28;95066;-45
2021/12/19 11:33:24;;;;;;;3.92;1.23;;;19.20;66.20;;;;;;4957747;28;95006;-44
2021/12/19 11:35:59;;;;;;;3.97;1.23;;;19.20;66.10;;;;;;4960142;28;95172;-47
2021/12/19 11:38:34;;;;;;;5.57;1.02;;;19.20;65.90;;;;;;4959599;28;96434;-47
2021/12/19 11:41:10;;;;;;;3.38;1.10;;;19.20;65.80;;;;;;4959578;28;95410;-45
2021/12/19 11:43:44;;;;;;;4.80;1.58;;;19.20;65.90;;;;;;4960305;28;94954;-43
2021/12/19 11:46:22;;;;;;;2.58;1.10;;;19.20;65.70;;;;;;4960724;28;95330;-44
2021/12/19 11:49:28;;;;;;;5.55;1.58;;;19.20;65.70;;;;;;4960297;28;96019;-45
2021/12/19 11:52:28;;;;;;;5.18;1.27;;;19.20;65.70;;;;;;4960608;28;95634;-44
2021/12/19 11:55:32;;;;;;;2.97;1.70;;;19.10;65.80;;;;;;4959457;28;95038;-43
2021/12/19 11:58:08;;;;;;;3.05;1.25;;;19.10;65.80;;;;;;4960679;28;95240;-43
2021/12/19 12:01:10;;;;;;;3.42;1.65;;;19.20;65.70;;;;;;4959672;28;96417;-40
2021/12/19 12:03:45;;;;;;;4.90;1.38;;;19.20;65.70;;;;;;4959829;28;95774;-45
2021/12/19 12:06:21;;;;;;;3.08;1.27;;;19.20;65.80;;;;;;4959109;28;95051;-43
2021/12/19 12:09:22;;;;;;;2.75;1.25;;;19.10;65.70;;;;;;4959852;28;95142;-47
2021/12/19 12:12:03;;;;;;;4.40;1.23;;;19.10;65.90;;;;;;4959356;28;94834;-42
2021/12/19 12:14:51;;;;;;;2.53;1.25;;;19.10;65.80;;;;;;4957032;28;95147;-45
2021/12/19 12:17:41;;;;;;;3.28;1.27;;;19.10;66.10;;;;;;4958393;28;95052;-45
2021/12/19 12:20:20;;;;;;;6.13;1.55;;;19.10;66.20;;;;;;4958992;28;95295;-41
2021/12/19 12:23:08;;;;;;;3.67;1.05;;;19.10;66.70;;;;;;4957700;28;95309;-41
2021/12/19 12:25:43;;;;;;;4.65;1.70;;;19.10;66.70;;;;;;4959028;28;95305;-43
2021/12/19 12:28:19;;;;;;;3.95;1.33;;;19.10;67.00;;;;;;4959119;28;94997;-46
2021/12/19 12:30:54;;;;;;;6.35;1.33;;;19.10;67.40;;;;;;4959484;28;95189;-44
2021/12/19 12:33:32;;;;;;;4.97;1.70;;;19.10;67.00;;;;;;4957305;28;96123;-42
2021/12/19 12:36:07;;;;;;;3.40;1.23;;;19.10;66.90;;;;;;4957317;28;95228;-42
2021/12/19 12:38:45;;;;;;;6.82;1.98;;;19.10;66.80;;;;;;4959058;28;95058;-45
2021/12/19 12:44:11;;;;;;;9.23;1.90;;;19.00;66.70;;;;;;4958696;28;96399;-44
2021/12/19 12:46:44;;;;;;;3.65;1.20;;;19.00;67.20;;;;;;4959261;28;95442;-45
2021/12/19 12:49:20;;;;;;;4.18;1.23;;;19.00;67.00;;;;;;4959956;28;94928;-46
2021/12/19 12:51:58;;;;;;;4.55;1.38;;;19.00;67.20;;;;;;4959972;28;95313;-46
2021/12/19 12:54:38;;;;;;;3.33;1.25;;;19.00;67.00;;;;;;4959389;28;95906;-45
2021/12/19 12:57:11;;;;;;;5.18;1.45;;;19.00;66.90;;;;;;4959432;28;95382;-47
2021/12/19 12:59:45;;;;;;;3.90;1.52;;;18.90;66.70;;;;;;4958697;28;94953;-47
2021/12/19 13:02:28;;;;;;;7.40;2.33;;;18.90;66.80;;;;;;4956214;28;95467;-47
2021/12/19 13:05:10;;;;;;;3.63;1.40;;;18.80;67.00;;;;;;4958902;28;96436;-48
2021/12/19 13:07:45;;;;;;;3.35;1.45;;;18.70;67.10;;;;;;4958551;28;95819;-46
2021/12/19 13:10:27;;;;;;;4.50;1.75;;;18.70;67.20;;;;;;4958582;28;95018;-46
2021/12/19 13:13:09;;;;;;;2.38;1.30;;;18.60;67.20;;;;;;4958616;28;95200;-44
2021/12/19 13:15:43;;;;;;;5.30;1.20;;;18.60;67.40;;;;;;4958437;28;96524;-45
2021/12/19 13:18:18;;;;;;;6.43;1.65;;;18.60;67.40;;;;;;4957636;28;95545;-47
2021/12/19 13:20:51;;;;;;;5.47;1.45;;;18.50;67.40;;;;;;4958506;28;94949;-45
2021/12/19 13:23:23;;;;;;;4.72;1.45;;;18.50;67.40;;;;;;4958725;28;95088;-45
2021/12/19 13:26:04;;;;;;;4.05;1.80;;;18.50;67.60;;;;;;4958078;28;95912;-46
2021/12/19 13:28:36;;;;;;;3.72;1.25;;;18.40;67.60;;;;;;4958005;28;95462;-47
2021/12/19 13:31:11;;;;;;;4.75;1.42;;;18.40;67.60;;;;;;4958438;28;94990;-47
2021/12/19 13:33:45;;;;;;;3.70;1.48;;;18.40;67.70;;;;;;4958594;28;95152;-46
2021/12/19 13:36:20;;;;;;;6.85;1.63;;;18.40;67.70;;;;;;4958394;28;96145;-47
2021/12/19 13:38:54;;;;;;;4.97;1.42;;;18.30;67.70;;;;;;4957695;28;96434;-47
2021/12/19 13:41:26;;;;;;;3.65;1.42;;;18.30;67.80;;;;;;4958140;28;94922;-44
2021/12/19 13:43:58;;;;;;;5.03;1.65;;;18.30;67.80;;;;;;4958689;28;95072;-46
2021/12/19 13:46:29;;;;;;;5.15;1.60;;;18.30;67.70;;;;;;4958741;28;96069;-45
2021/12/19 13:49:01;;;;;;;4.95;1.50;;;18.30;67.80;;;;;;4959057;28;95806;-43
2021/12/19 13:51:34;;;;;;;3.17;1.48;;;18.20;67.80;;;;;;4959271;28;94934;-47
2021/12/19 13:54:10;;;;;;;3.08;1.50;;;18.20;67.90;;;;;;4959457;28;95208;-46
2021/12/19 13:56:42;;;;;;;4.13;1.70;;;18.20;67.80;;;;;;4958928;28;96076;-46
2021/12/19 13:59:21;;;;;;;5.57;1.70;;;18.20;67.90;;;;;;4957809;28;95217;-45
2021/12/19 14:01:55;;;;;;;6.68;1.90;;;18.20;68.00;;;;;;4956911;28;95418;-47
2021/12/19 14:04:30;;;;;;;2.25;1.17;;;18.20;67.90;;;;;;4958354;28;95265;-47
2021/12/19 14:07:10;;;;;;;5.22;2.15;;;18.10;67.90;;;;;;4957517;28;95870;-46
2021/12/19 14:10:02;;;;;;;5.45;1.70;;;18.10;67.90;;;;;;4956933;28;96179;-45
2021/12/19 14:15:24;;;;;;;3.92;1.65;;;18.10;68.00;;;;;;4957815;28;95092;-46
2021/12/19 14:17:58;;;;;;;6.38;1.88;;;18.10;68.00;;;;;;4957582;28;95830;-45
2021/12/19 14:20:36;;;;;;;3.40;1.70;;;18.10;68.10;;;;;;4957667;28;95273;-45
2021/12/19 14:23:23;;;;;;;8.13;1.17;;;18.00;68.10;;;;;;4958079;28;94968;-44
2021/12/19 14:25:55;;;;;;;6.90;1.42;;;18.00;68.20;;;;;;4957970;28;95271;-46
2021/12/19 14:28:32;;;;;;;5.55;1.77;;;18.00;68.70;;;;;;4955530;28;95112;-45
2021/12/19 14:31:08;;;;;;;7.80;1.65;;;18.00;68.60;;;;;;4960289;28;95108;-47
2021/12/19 14:33:40;;;;;;;5.28;2.35;;;18.00;68.50;;;;;;4960612;28;95094;-45
2021/12/19 14:36:13;;;;;;;5.68;1.60;;;18.00;68.50;;;;;;4961099;28;95093;-47
2021/12/19 14:38:46;;;;;;;6.72;2.38;;;17.90;68.20;;;;;;4959312;28;95924;-43